Weather observations for the past three days for
Richard I. Bong Airport
Metric (Imperial)
Date Time (cdt) Wind (kph) Vis. (km) Weather Sky Cond. Temperature (ºC) Relative Humidity Wind Chill (°C) Heat Index (°C) Pressure Precipitation (cm)
Air Dwpt 6 hour altimeter (cm) sea level (mb) 1 hr 3 hr 6 hr
Max. Min.
05 23:15 W 9 16.09 Overcast OVC046 3.2 -5.8 52% 1 75.97 0.0
05 22:55 NW 13 16.09 Overcast OVC046 3.4 -5.9 51% 0 75.97 0.0
05 22:35 NW 17 16.09 Overcast OVC046 3.4 -6 51% -0 75.97 0.0
05 22:15 NW 11 16.09 Overcast OVC048 3.5 -6 50% 1 75.97 0.0
05 21:55 NW 15 16.09 Overcast OVC048 3.6 -6.5 48% 0 75.97 0.0
05 21:35 NW 15 16.09 Overcast OVC050 3.7 -6.2 49% 1 75.95 0.0
05 21:15 NW 22 G 31 16.09 Overcast OVC050 3.9 -6.1 48% -0 75.92 0.0
05 20:55 NW 19 G 28 16.09 Overcast OVC050 4.2 -6.1 47% 1 75.9 0.0
05 20:35 NW 20 G 31 16.09 Overcast OVC050 4.4 -6.1 47% 1 75.87 0.0
05 20:15 NW 19 G 26 16.09 Overcast OVC050 4.6 -5.9 47% 1 75.87 0.0
05 19:55 NW 15 G 26 16.09 Overcast OVC050 4.8 -5.9 46% 2 75.84 0.0
05 19:35 W 19 16.09 Overcast OVC050 5.1 -6 45% 2 75.82 0.0
05 19:15 W 20 16.09 Overcast OVC050 5.3 -5.9 45% 2 75.82 0.0
05 18:55 NW 22 G 33 16.09 Overcast OVC050 5.6 -5.9 7.5 5.2 44% 2 75.79 0.0
05 18:35 W 19 16.09 Overcast OVC050 6.1 -6 42% 3 75.79 0.0
05 18:15 W 20 16.09 Overcast OVC050 6.1 -5.9 42% 3 75.79 0.0
05 17:55 W 17 G 37 16.09 Overcast OVC050 6.5 -5.7 42% 4 75.79 0.0
05 17:35 NW 22 G 33 16.09 Overcast OVC050 6.9 -5.6 41% 4 75.77 0.0
05 17:15 W 22 G 30 16.09 Overcast OVC050 7.1 -5.4 41% 4 75.77 0.0
05 16:55 NW 28 G 37 16.09 Overcast OVC050 7 -5.6 41% 3 75.74 0.0
05 16:35 W 20 G 31 16.09 Overcast OVC050 6.7 -5.6 41% 3 75.77 0.0
05 16:15 W 28 G 37 16.09 Overcast OVC048 6.7 -5.6 41% 3 75.74 0.0
05 15:55 W 19 G 31 16.09 Overcast OVC048 6.7 -5.3 42% 4 75.74 0.0
05 15:35 W 26 G 33 16.09 Overcast OVC048 6.5 -4.9 44% 3 75.74 0.0
05 15:15 W 24 G 33 16.09 Overcast BKN048 OVC050 6.5 -5.1 44% 3 75.77 0.0
05 14:55 W 22 G 37 16.09 Overcast OVC050 6.6 -5.1 43% 3 75.74 0.0
05 14:35 W 24 G 31 16.09 Overcast OVC050 6.2 -5.5 43% 2 75.74 0.0
05 14:15 W 20 G 30 16.09 Overcast OVC050 6.5 -5.4 43% 3 75.74 0.0
05 13:55 W 22 G 28 16.09 Overcast BKN048 OVC060 6.2 -5.2 44% 3 75.74 0.0
05 13:35 NW 20 16.09 Overcast OVC050 5.9 -5.7 43% 3 75.74 0.0
05 13:15 W 19 G 30 16.09 Overcast OVC050 6 -5.5 44% 3 75.72 0.0
05 12:55 W 17 16.09 Overcast OVC048 5.1 -5.8 5.8 1 46% 2 75.74 0.0
05 12:35 W 15 16.09 Overcast OVC048 5.5 -5.9 44% 3 75.72 0.0
05 11:55 NW 17 G 28 16.09 Overcast OVC048 5.3 -6.1 44% 2 75.72 0.0
05 11:35 NW 22 G 28 16.09 Overcast OVC045 4.7 -5.9 47% 1 75.72 0.0
05 11:15 W 17 G 33 16.09 Overcast OVC045 4.2 -6.2 47% 1 75.72 0.0
05 10:55 NW 24 G 31 16.09 Overcast OVC043 3.9 -6.5 47% -0 75.72 0.0
05 10:35 W 13 16.09 Overcast OVC045 2.9 -6.5 50% -0 75.72 0.0
05 10:15 NW 20 G 30 16.09 Overcast OVC045 2.7 -6.9 50% -1 75.69 0.0
05 09:55 NW 22 G 31 16.09 Overcast BKN043 OVC050 2.3 -6.8 51% -2 75.67 0.0
05 09:35 NW 17 16.09 Overcast SCT040 OVC050 2.1 -6.4 54% -2 75.67 0.0
05 09:15 NW 22 G 30 16.09 Overcast SCT040 OVC048 2.2 -6.6 53% -2 75.64 0.0
05 08:55 W 17 G 30 16.09 Overcast BKN040 OVC050 2.1 -6.5 53% -2 75.62 0.0
05 08:35 NW 17 G 28 16.09 Overcast BKN040 BKN049 OVC075 2.3 -6.4 53% -1 75.62 0.0
05 08:15 NW 17 16.09 Overcast SCT040 SCT047 OVC075 2.1 -5.9 56% -2 75.59 0.0
05 07:35 W 13 16.09 Mostly Cloudy SCT034 BKN075 1.7 -5.7 58% -2 75.57 0.0
05 07:15 W 13 16.09 Mostly Cloudy BKN032 1.1 -5.8 60% -2 75.57 0.0
05 06:55 W 17 G 26 16.09 Mostly Cloudy BKN032 1.1 -6 5 0.4 60% -3 75.54 0.0
05 06:15 W 15 16.09 Partly Cloudy SCT034 0.4 -5 67% -3 75.49 0.0
05 05:55 W 15 G 26 16.09 Partly Cloudy SCT036 0.5 -4.8 68% -3 75.49 0.0
05 05:35 W 19 16.09 Fair CLR 0.8 -4.8 67% -4 75.46 0.0
05 05:15 W 26 G 35 16.09 Partly Cloudy SCT039 0.9 -4.7 67% -4 75.46 0.0
05 04:55 W 22 16.09 Partly Cloudy SCT046 0.9 -3.3 74% -4 75.44 0.0
05 04:35 W 15 16.09 Overcast SCT017 BKN041 OVC048 1.3 -1.1 84% -2 75.44 0.0
05 04:15 NW 19 11.27 Drizzle BKN019 OVC029 1.7 -1.1 82% -2 75.41 0.0
05 03:55 W 11 16.09 Overcast SCT021 OVC029 2.6 -1.3 76% -0 75.39 0.0
05 03:35 W 15 16.09 Mostly Cloudy SCT021 BKN029 BKN049 2 -1.7 77% -2 75.36 0.0
05 03:15 W 9 G 17 16.09 Mostly Cloudy SCT029 SCT034 BKN046 2.5 -1.8 74% 0 75.36 0.0
05 02:55 NW 20 G 28 16.09 Mostly Cloudy SCT040 BKN048 2.8 -2.2 70% -1 75.36 0.0
05 02:35 NW 26 G 39 16.09 Mostly Cloudy SCT040 BKN050 3.7 -3.2 61% -1 75.36 0.0
05 02:15 W 19 G 26 16.09 Fair CLR 3.2 -3.5 62% -1 75.34 0.0
05 01:55 NW 13 16.09 Fair CLR 3.1 -3.3 63% 0 75.34 0.0
05 01:35 W 11 16.09 Partly Cloudy SCT060 3.1 -3.5 62% 0 75.34 0.0
05 01:15 NW 9 16.09 Mostly Cloudy SCT060 BKN075 4.3 -3.5 57% 2 75.34 0.0
05 00:55 NW 17 16.09 Overcast SCT050 OVC075 4.8 -4 8 4.7 53% 2 75.34 0.0
05 00:35 W 11 16.09 Overcast OVC075 5 -4.5 51% 3 75.34 0.0
05 00:15 W 19 16.09 Partly Cloudy SCT075 5 -5 49% 2 75.31 0.0
04 23:55 W 17 G 28 16.09 Fair CLR 5 -5 49% 2 75.31 0.0
04 23:35 W 15 G 31 16.09 Partly Cloudy SCT075 5.6 -5 47% 3 75.29 0.0
04 23:15 W 17 G 30 16.09 Overcast SCT065 OVC075 6.3 -4.6 46% 3 75.29 0.0
04 22:55 W 19 16.09 Overcast SCT065 OVC085 6.3 -5 45% 3 75.29 0.0
04 22:35 W 22 G 33 16.09 Overcast OVC085 6.7 -5 43% 3 75.29 0.0
04 22:15 W 17 G 26 16.09 Overcast OVC085 6.9 -5.1 42% 4 75.29 0.0
04 21:55 W 17 G 26 16.09 Overcast OVC085 6.9 -5.3 42% 4 75.26 0.0
04 21:35 W 24 G 30 16.09 Overcast OVC085 7 -5.6 41% 4 75.23 0.0
04 21:15 W 20 G 30 16.09 Overcast OVC085 6.9 -5.5 41% 4 75.23 0.0
04 20:55 W 20 G 37 16.09 Overcast SCT065 OVC085 7 -5.8 40% 4 75.21 0.0
04 20:35 W 22 G 30 16.09 Overcast SCT065 OVC075 6.9 -5.8 40% 4 75.18 0.0
04 20:15 W 20 G 31 16.09 Overcast SCT065 OVC075 7.5 -5.7 39% 4 75.18 0.0
04 19:55 W 20 G 43 16.09 Overcast OVC075 7.6 -5.6 39% 5 75.16 0.0
04 19:35 W 26 G 35 16.09 Overcast OVC075 7.7 -5.8 38% 4 75.16 0.0
04 19:15 W 24 G 43 16.09 Overcast OVC065 7.8 -5.3 39% 5 75.13 0.0
04 18:55 W 31 G 43 16.09 Mostly Cloudy BKN065 BKN075 7.9 -5.2 12.7 7.6 39% 4 75.13 0.0
04 18:35 W 22 G 41 16.09 Overcast BKN055 OVC065 8.4 -4.1 41% 5 75.16 0.0
04 18:15 W 24 G 30 16.09 Overcast OVC060 7.9 -3.2 46% 5 75.13 0.0
04 17:55 W 22 G 44 16.09 Overcast OVC060 8.2 -3.4 44% 5 75.11 0.0
04 17:35 W 33 G 43 16.09 Overcast and Breezy OVC050 8.2 -3.3 44% 4 75.11 0.0
04 17:15 W 26 G 48 16.09 Overcast SCT050 OVC060 8.7 -2.9 44% 6 75.08 0.0
04 16:55 W 37 G 50 16.09 Overcast and Breezy BKN050 OVC060 9.2 -2.6 44% 5 75.03 0.0
04 16:35 W 33 G 44 16.09 Overcast and Breezy SCT060 OVC065 9.5 -1.9 45% 6 75.01 0.0
04 16:15 W 31 G 43 16.09 Overcast BKN050 OVC070 9.7 -2.3 43% 6 74.98 0.0
04 15:55 W 28 G 37 16.09 Overcast SCT050 OVC060 10.3 -1.8 43% 74.98 0.0
04 15:35 W 26 G 44 16.09 Overcast OVC060 10.1 -2 43% 74.96 0.0
04 15:15 W 26 G 43 16.09 Overcast OVC060 10.5 -2.2 41% 74.96 0.0
04 14:55 W 24 G 43 16.09 Overcast OVC060 10.8 -2.2 41% 74.93 0.0
04 14:35 W 26 G 48 16.09 Overcast OVC060 11.1 -1.8 41% 74.9 0.0
04 14:15 NW 39 G 54 16.09 Overcast and Breezy BKN050 OVC065 11.6 -1.9 39% 74.88 0.0
04 13:55 W 31 G 46 16.09 Overcast OVC055 11 -1.4 42% 74.85 0.0
04 13:35 NW 31 G 46 16.09 Mostly Cloudy BKN060 11.5 -1.6 40% 74.83 0.0
04 13:15 W 37 G 50 16.09 Mostly Cloudy and Breezy BKN060 12.3 -1.1 40% 74.8 0.0
04 12:55 W 30 G 48 16.09 Overcast OVC060 11 -1.2 13.3 10.6 43% 74.8 0.0
04 12:35 W 22 G 48 16.09 Overcast OVC060 11.3 -0.4 45% 74.78 0.0
04 12:15 W 30 G 46 16.09 Overcast BKN048 OVC060 10.6 -0.4 47% 74.78 0.0
04 11:55 W 35 G 46 16.09 Overcast and Breezy OVC048 10.7 -0.1 48% 74.75 0.0
04 11:35 W 37 G 46 16.09 Overcast and Breezy BKN048 OVC055 10.9 -0.3 46% 74.73 0.0
04 11:15 W 33 G 52 16.09 Overcast and Breezy BKN048 OVC055 11.9 0.2 45% 74.7 0.0
04 10:55 NW 30 G 46 16.09 Overcast OVC046 11.6 0.5 47% 74.68 0.0
04 10:35 W 30 G 41 16.09 Overcast OVC048 11.6 0.1 45% 74.65 0.0
04 10:15 W 35 G 50 16.09 Overcast and Breezy OVC050 11.9 -0.3 43% 74.6 0.0
04 09:55 W 31 G 44 16.09 Overcast OVC048 11.7 0.6 47% 74.57 0.0
04 09:35 W 33 G 54 16.09 Overcast and Breezy BKN047 OVC050 12.1 0.6 46% 74.57 0.0
04 09:15 W 20 G 35 16.09 Mostly Cloudy BKN050 13.2 2.7 49% 74.55 0.0
04 08:55 W 28 G 48 16.09 Overcast SCT043 BKN049 OVC110 11.5 2.3 54% 74.55 0.0
04 08:35 W 31 G 43 16.09 Overcast SCT041 OVC110 11.7 2.6 54% 74.52 0.0
04 08:15 W 22 G 31 16.09 Overcast SCT039 SCT065 OVC110 12 3.5 56% 74.47 0.0
04 07:55 W 17 16.09 Overcast SCT039 SCT070 OVC100 11.7 3.5 57% 74.45 0.0
04 07:35 W 20 G 35 16.09 Overcast SCT039 BKN060 OVC090 12 3.6 57% 74.47 0.0
04 07:15 W 26 G 35 16.09 Overcast OVC060 12.3 3.6 56% 74.45 0.0
04 06:55 W 22 G 35 16.09 Mostly Cloudy SCT065 BKN120 12.5 3.7 16 12.2 55% 74.42 0.0
04 06:35 NW 24 G 33 16.09 Partly Cloudy SCT120 12.2 4.3 59% 74.4 0.0
04 06:15 NW 31 G 43 16.09 Fair CLR 12.8 4.5 57% 74.37 0.0
04 05:55 W 30 G 43 16.09 Fair CLR 15.5 -1.2 32% 74.27 0.0
04 05:35 SW 22 G 37 16.09 Partly Cloudy SCT120 15.5 -1.5 31% 74.24 0.0
04 05:15 SW 22 G 33 16.09 Partly Cloudy SCT110 15.5 -1.5 31% 74.24 0.0
04 04:55 SW 20 G 30 16.09 Overcast SCT090 OVC110 15.6 -1.4 31% 74.27 0.0
04 04:35 SW 20 G 28 16.09 Overcast BKN090 OVC110 15.6 -1.1 32% 74.3 0.0
04 04:15 SW 24 G 30 16.09 Mostly Cloudy BKN110 15.6 -1.4 31% 74.32 0.0
04 03:55 SW 20 G 33 16.09 Partly Cloudy SCT100 15.5 -1.2 32% 74.37 0.0
04 03:35 SW 20 G 35 16.09 Fair CLR 15.5 -1.5 31% 74.4 0.0
04 03:15 SW 26 G 35 16.09 Fair CLR 15.6 -1.5 31% 74.4 0.0
04 02:55 SW 24 G 37 16.09 Fair CLR 15.9 -1.4 31% 74.45 0.0
04 02:35 SW 28 G 39 16.09 Fair CLR 15.8 -1.4 31% 74.47 0.0
04 02:15 SW 22 G 31 16.09 Fair CLR 15.7 -1.2 32% 74.52 0.0
04 01:55 SW 20 G 31 16.09 Fair CLR 15.7 -1.1 32% 74.55 0.0
04 01:35 SW 20 16.09 Fair CLR 15.4 -1.2 32% 74.6 0.0
04 01:15 SW 20 G 26 16.09 Fair CLR 15 -1.3 33% 74.65 0.0
04 00:55 S 19 G 33 16.09 Fair CLR 14.9 -1.6 19.1 13.4 32% 74.7 0.0
04 00:35 SW 17 16.09 Fair CLR 14.9 -1.7 32% 74.7 0.0
04 00:15 SW 20 16.09 Fair CLR 14.7 -2 32% 74.73 0.0
03 23:55 SW 19 16.09 Fair CLR 14.6 -2.2 32% 74.78 0.0
03 23:35 SW 19 G 28 16.09 Fair CLR 14.2 -2.3 32% 74.8 0.0
03 23:15 S 17 16.09 Fair CLR 13.8 -2.4 33% 74.85 0.0
03 22:55 S 15 16.09 Fair CLR 14.2 -2.2 32% 74.88 0.0
03 22:35 SW 15 16.09 Fair CLR 14.3 -2.1 32% 74.93 0.0
03 22:15 SW 15 16.09 Fair CLR 14.5 -2.2 32% 74.96 0.0
03 21:55 SW 15 16.09 Fair CLR 14.2 -2.3 32% 74.98 0.0
03 21:35 S 13 16.09 Fair CLR 13.5 -2.2 34% 75.01 0.0
03 21:15 S 11 16.09 Fair CLR 13.6 -2.6 33% 75.03 0.0
03 20:55 SW 11 16.09 Fair CLR 14.5 -3.1 30% 75.06 0.0
03 20:35 S 7 16.09 Fair CLR 15.4 -3.5 27% 75.08 0.0
03 20:10 SW 7 16.09 Fair CLR 17 -3.4 25% 75.08 0.0
03 19:55 SW 7 16.09 Fair CLR 17.5 -3.5 24% 75.11 0.0
03 19:35 W 9 16.09 Fair CLR 18.5 -3.7 22% 75.11 0.0
03 19:15 W 11 16.09 Fair CLR 19 -3.9 21% 75.13 0.0
03 18:55 W 22 16.09 Fair CLR 19.2 -3.8 20.5 18.2 21% 75.13 0.0
03 18:35 W 11 16.09 Fair CLR 18.9 -3.6 22% 75.13 0.0
03 18:15 W 17 G 30 16.09 Fair CLR 20 -3.7 20% 75.16 0.0
03 17:55 W 19 16.09 Fair CLR 18.6 -4.1 21% 75.18 0.0
03 17:35 NW 28 G 41 16.09 Fair CLR 20 -4.2 19% 75.18 0.0
03 17:15 W 28 G 33 16.09 Fair CLR 20 -3.5 20% 75.18 0.0
03 16:55 W 19 G 33 16.09 Fair CLR 20.4 -2.9 21% 75.18 0.0
03 16:35 W 22 G 31 16.09 Fair CLR 20.2 -2.9 21% 75.21 0.0
03 16:15 W 20 G 26 16.09 Fair CLR 20.2 -2.7 21% 75.23 0.0
03 15:55 W 22 G 39 16.09 Fair CLR 19.8 -2.8 22% 75.23 0.0
03 15:35 W 20 G 31 16.09 Fair CLR 19.7 -2.9 22% 75.26 0.0
03 15:15 NW 20 G 31 16.09 Fair CLR 20 -2.4 22% 75.29 0.0
03 14:55 NW 19 G 39 16.09 Fair CLR 19.2 -3.8 21% 75.29 0.0
03 14:35 NW 28 G 39 16.09 Fair CLR 19.3 -4.3 20% 75.31 0.0
03 14:15 W 19 G 31 16.09 Fair CLR 19.1 -6.2 17% 75.34 0.0
03 13:55 W 22 G 37 16.09 Fair CLR 18.6 -6.6 18% 75.34 0.0
03 13:35 W 24 G 33 16.09 Fair CLR 18.3 -6.6 18% 75.34 0.0
03 13:15 NW 20 G 31 16.09 Fair CLR 18.6 -7 17% 75.36 0.0
03 12:55 NW 24 16.09 Fair CLR 18.3 -7.4 18.8 2.7 17% 75.39 0.0
03 12:35 W 26 G 35 16.09 Fair CLR 18.7 -4.3 21% 75.39 0.0
03 12:15 W 22 G 39 16.09 Fair CLR 18.2 -3.3 23% 75.39 0.0
03 11:55 W 30 G 35 16.09 Fair CLR 18.4 -0.1 29% 75.39 0.0
03 11:35 NW 30 G 39 16.09 Fair CLR 17.9 0.2 30% 75.39 0.0
03 11:15 NW 24 16.09 Fair CLR 17.5 2.2 36% 75.39 0.0
03 10:55 NW 20 16.09 Fair CLR 17.2 2.5 38% 75.39 0.0
03 10:35 NW 26 G 35 16.09 Fair CLR 17 2.7 39% 75.39 0.0
03 10:15 NW 26 G 35 16.09 Fair CLR 16.9 2.5 38% 75.39 0.0
03 09:55 NW 24 G 30 16.09 Fair CLR 17 2.6 38% 75.39 0.0
03 09:35 W 19 G 26 16.09 Fair CLR 16.5 3.4 42% 75.39 0.0
03 09:15 Calm 16.09 Fair CLR 13.8 3.7 51% 75.39 0.0
03 08:55 S 6 16.09 Fair CLR 11.8 3 55% 75.39 0.0
03 08:35 SW 6 16.09 Fair CLR 9.5 2 60% 75.41 0.0
03 08:15 Calm 16.09 Fair CLR 7.7 1.2 64% 75.41 0.0
03 07:55 Calm 16.09 Fair CLR 6.2 0.8 69% 75.41 0.0
03 07:30 Calm 16.09 Fair CLR 4.7 0.5 75% 75.41 0.0
03 07:15 SW 7 16.09 Fair CLR 4 0.3 77% 2 75.41 0.0
03 06:55 SW 7 16.09 Fair CLR 2.3 0.4 4.8 -1 87% 0 75.41 0.0
03 06:35 SW 6 16.09 Fair CLR 0.5 -0.9 90% 75.39 0.0
03 06:15 S 6 16.09 Fair CLR -0.6 -1.8 92% 75.39 0.0
03 05:55 Calm 16.09 Fair CLR -0.3 -1.7 90% 75.39 0.0
03 05:35 Calm 16.09 Fair CLR 0 -1.2 92% 75.39 0.0
03 05:15 Calm 16.09 Fair CLR -0.3 -1.3 93% 75.39 0.0
03 04:55 Calm 16.09 Fair CLR 0.1 -1.5 89% 75.41 0.0
03 04:35 Calm 16.09 Fair CLR 0 -2 87% 75.39 0.0
03 04:15 Calm 16.09 Fair CLR 1.2 -1 85% 75.39 0.0
03 03:55 Calm 16.09 Fair CLR 1.1 -1.1 85% 75.41 0.0
03 03:35 Calm 16.09 Fair CLR 2.1 -1.2 79% 75.41 0.0
03 03:15 Calm 16.09 Fair CLR 3.2 -0.9 75% 75.41 0.0
03 02:55 Calm 16.09 Partly Cloudy SCT120 3.5 -0.5 75% 75.44 0.0
03 02:35 NE 6 16.09 Mostly Cloudy SCT095 BKN120 4.1 -0.3 73% 75.44 0.0
03 02:15 Calm 16.09 Overcast OVC095 4.5 0 73% 75.46 0.0
03 01:55 Calm 16.09 Overcast OVC095 4.8 0.6 75% 75.49 0.0
03 01:35 Calm 16.09 Overcast OVC095 4.7 0.6 75% 75.51 0.0
03 01:15 Calm 16.09 Overcast OVC095 4.7 0.8 76% 75.54 0.0
03 00:55 Calm 16.09 Overcast OVC095 4.9 1 17 4.9 76% 75.54 0.0
03 00:35 N 6 16.09 Overcast OVC085 5 1.2 77% 75.57 0.0
03 00:15 N 7 16.09 Overcast SCT075 OVC085 6 1.4 73% 5 75.57 0.0
02 23:55 Calm 16.09 Overcast BKN070 OVC085 5.6 1.5 75% 75.57 0.0
Date Time (cdt) Wind (kph) Vis. (km) Weather Sky Cond. Air Dwpt Max. Min. Relative Humidity Wind Chill (°C) Heat Index (°C) altimeter (cm) sea level (mb) 1 hr 3 hr 6 hr
6 hour
Temperature (ºC) Pressure Precipitation (cm)